Time;durP1;ratioP1;P1;durP2;ratioP2;P2;SDS_P1;SDS_P2;PMS_P1;PMS_P2;Temp;Humidity;BMP_temperature;BMP_pressure;BME280_temperature;BME280_humidity;BME280_pressure;Samples;Min_cycle;Max_cycle;Signal;HPM_P1;HPM_P2
2021/08/04 00:01:43;;;;;;;7.05;3.70;;;;;;;;;;6184460;28;20038;-68
2021/08/04 00:04:44;;;;;;;7.45;2.95;;;;;;;;;;6198180;28;20046;-67
2021/08/04 00:07:47;;;;;;;7.38;2.92;;;;;;;;;;6190112;28;20145;-68
2021/08/04 00:10:49;;;;;;;8.25;2.88;;;;;;;;;;6189765;28;20128;-68
2021/08/04 00:13:51;;;;;;;7.97;3.00;;;;;;;;;;6201103;28;20069;-68
2021/08/04 00:16:52;;;;;;;5.50;3.30;;;;;;;;;;6183109;28;20045;-68
2021/08/04 00:19:54;;;;;;;7.32;3.00;;;;;;;;;;6196361;28;20152;-68
2021/08/04 00:22:57;;;;;;;5.47;2.60;;;;;;;;;;6187395;28;20186;-68
2021/08/04 00:25:58;;;;;;;6.90;2.88;;;;;;;;;;6190409;28;20133;-68
2021/08/04 00:29:00;;;;;;;6.65;2.95;;;;;;;;;;6196967;28;20204;-71
2021/08/04 00:32:02;;;;;;;4.13;2.55;;;;;;;;;;6184710;28;23308;-68
2021/08/04 00:35:04;;;;;;;5.45;2.50;;;;;;;;;;6193162;28;20189;-68
2021/08/04 00:38:11;;;;;;;5.35;2.55;;;;;;;;;;6192845;28;20099;-67
2021/08/04 00:41:13;;;;;;;6.68;2.70;;;;;;;;;;6196137;28;20174;-68
2021/08/04 00:44:14;;;;;;;3.58;2.70;;;;;;;;;;6208225;28;20073;-68
2021/08/04 00:47:17;;;;;;;5.22;2.60;;;;;;;;;;6188579;28;20050;-70
2021/08/04 00:50:18;;;;;;;6.30;2.47;;;;;;;;;;6196997;28;20076;-71
2021/08/04 00:53:23;;;;;;;6.82;2.60;;;;;;;;;;6196356;28;20096;-68
2021/08/04 00:56:25;;;;;;;4.40;2.20;;;;;;;;;;6191596;28;20074;-67
2021/08/04 00:59:26;;;;;;;4.50;2.35;;;;;;;;;;6199350;28;20149;-68
2021/08/04 01:02:32;;;;;;;6.32;2.42;;;;;;;;;;6181739;28;20092;-68
2021/08/04 01:05:38;;;;;;;9.85;2.90;;;;;;;;;;6186322;28;20453;-68
2021/08/04 01:08:44;;;;;;;6.75;2.45;;;;;;;;;;6194404;28;20058;-68
2021/08/04 01:11:49;;;;;;;7.50;2.38;;;;;;;;;;6188354;28;20041;-67
2021/08/04 01:14:54;;;;;;;6.60;2.50;;;;;;;;;;6197265;28;20526;-69
2021/08/04 01:17:56;;;;;;;5.05;2.22;;;;;;;;;;6180751;28;20054;-68
2021/08/04 01:20:58;;;;;;;7.70;2.40;;;;;;;;;;6186866;28;20072;-68
2021/08/04 01:24:08;;;;;;;6.35;2.20;;;;;;;;;;6196929;28;20054;-67
2021/08/04 01:27:12;;;;;;;5.63;2.30;;;;;;;;;;6199314;28;20621;-68
2021/08/04 01:30:14;;;;;;;4.72;2.00;;;;;;;;;;6192715;28;20461;-65
2021/08/04 01:33:17;;;;;;;5.90;2.42;;;;;;;;;;6190727;28;20382;-68
2021/08/04 01:36:19;;;;;;;7.00;2.30;;;;;;;;;;6188289;28;20748;-67
2021/08/04 01:39:22;;;;;;;7.83;2.67;;;;;;;;;;6195008;28;20274;-68
2021/08/04 01:42:25;;;;;;;8.48;2.20;;;;;;;;;;6185112;28;20514;-68
2021/08/04 01:45:26;;;;;;;5.82;1.90;;;;;;;;;;6184233;28;20050;-70
2021/08/04 01:48:28;;;;;;;7.40;2.60;;;;;;;;;;6191108;28;20137;-68
2021/08/04 01:51:31;;;;;;;5.70;2.28;;;;;;;;;;6183927;28;20536;-68
2021/08/04 01:54:32;;;;;;;5.65;2.15;;;;;;;;;;6194154;28;20050;-70
2021/08/04 01:57:35;;;;;;;5.10;1.80;;;;;;;;;;6187378;28;20079;-70
2021/08/04 02:00:37;;;;;;;6.20;2.33;;;;;;;;;;6187753;28;20050;-68
2021/08/04 02:03:38;;;;;;;5.55;1.95;;;;;;;;;;6193751;28;20529;-68
2021/08/04 02:06:45;;;;;;;8.52;2.65;;;;;;;;;;6183443;28;20220;-69
2021/08/04 02:09:49;;;;;;;6.78;2.53;;;;;;;;;;6197277;28;20061;-67
2021/08/04 02:12:58;;;;;;;2.97;1.90;;;;;;;;;;6190709;28;20088;-67
2021/08/04 02:16:08;;;;;;;3.90;2.30;;;;;;;;;;6180632;28;20050;-68
2021/08/04 02:19:13;;;;;;;6.47;2.22;;;;;;;;;;6193029;28;20125;-68
2021/08/04 02:22:17;;;;;;;6.68;2.28;;;;;;;;;;6187420;28;20053;-68
2021/08/04 02:25:20;;;;;;;;;;;;;;;;;;6192078;28;22632;-71
2021/08/04 02:28:25;;;;;;;3.80;2.60;;;;;;;;;;6200873;28;19929;-67
2021/08/04 02:31:27;;;;;;;6.78;2.30;;;;;;;;;;6189813;28;20054;-67
2021/08/04 02:34:29;;;;;;;4.75;2.67;;;;;;;;;;6199196;28;20386;-67
2021/08/04 02:37:31;;;;;;;6.30;2.30;;;;;;;;;;6196119;28;20096;-67
2021/08/04 02:40:33;;;;;;;5.00;2.45;;;;;;;;;;6191346;28;20430;-68
2021/08/04 02:43:36;;;;;;;6.10;2.10;;;;;;;;;;6209532;28;20121;-68
2021/08/04 02:46:37;;;;;;;;;;;;;;;;;;6180126;28;20556;-69
2021/08/04 02:49:40;;;;;;;4.47;2.20;;;;;;;;;;6203473;28;19953;-67
2021/08/04 02:52:43;;;;;;;7.18;2.88;;;;;;;;;;6197293;28;20117;-68
2021/08/04 02:55:45;;;;;;;5.57;2.65;;;;;;;;;;6192571;28;20121;-67
2021/08/04 02:58:48;;;;;;;4.13;2.50;;;;;;;;;;6199950;28;20489;-67
2021/08/04 03:01:50;;;;;;;7.03;2.20;;;;;;;;;;6179947;28;20133;-68
2021/08/04 03:04:52;;;;;;;7.47;2.75;;;;;;;;;;6207319;28;20038;-67
2021/08/04 03:07:53;;;;;;;6.15;2.80;;;;;;;;;;6197239;28;20077;-67
2021/08/04 03:10:55;;;;;;;4.43;2.33;;;;;;;;;;6191154;28;20176;-68
2021/08/04 03:13:58;;;;;;;9.77;2.88;;;;;;;;;;6210659;28;20096;-68
2021/08/04 03:17:00;;;;;;;5.47;2.53;;;;;;;;;;6176330;28;20185;-68
2021/08/04 03:20:01;;;;;;;6.90;2.70;;;;;;;;;;6195692;28;20128;-68
2021/08/04 03:23:03;;;;;;;5.47;2.70;;;;;;;;;;6189450;28;20046;-68
2021/08/04 03:26:05;;;;;;;7.70;2.60;;;;;;;;;;6195561;28;20429;-68
2021/08/04 03:29:08;;;;;;;5.95;2.53;;;;;;;;;;6199958;28;20096;-67
2021/08/04 03:32:09;;;;;;;4.38;2.30;;;;;;;;;;6180761;28;20615;-67
2021/08/04 03:35:11;;;;;;;6.05;2.80;;;;;;;;;;6193652;28;20038;-70
2021/08/04 03:38:13;;;;;;;4.55;2.65;;;;;;;;;;6195159;28;20132;-69
2021/08/04 03:41:14;;;;;;;6.35;2.90;;;;;;;;;;6195783;28;20062;-67
2021/08/04 03:44:17;;;;;;;5.82;2.80;;;;;;;;;;6208241;28;20168;-68
2021/08/04 03:47:19;;;;;;;7.15;2.92;;;;;;;;;;6185560;28;20048;-68
2021/08/04 03:50:21;;;;;;;5.78;3.00;;;;;;;;;;6192882;28;20062;-70
2021/08/04 03:53:22;;;;;;;8.25;2.83;;;;;;;;;;6196975;28;20045;-67
2021/08/04 03:56:24;;;;;;;5.53;3.05;;;;;;;;;;6190863;28;20100;-68
2021/08/04 03:59:27;;;;;;;5.45;3.00;;;;;;;;;;6198927;28;20115;-67
2021/08/04 04:02:28;;;;;;;7.72;3.17;;;;;;;;;;6183595;28;20177;-68
2021/08/04 04:05:30;;;;;;;6.57;3.60;;;;;;;;;;6185116;28;20068;-70
2021/08/04 04:08:32;;;;;;;10.52;4.47;;;;;;;;;;6204172;28;20140;-67
2021/08/04 04:11:33;;;;;;;5.47;3.60;;;;;;;;;;6188913;28;20042;-71
2021/08/04 04:14:36;;;;;;;5.18;3.75;;;;;;;;;;6197459;28;20050;-67
2021/08/04 04:17:38;;;;;;;9.30;3.22;;;;;;;;;;6180367;28;20049;-67
2021/08/04 04:20:39;;;;;;;7.57;4.57;;;;;;;;;;6187752;28;20050;-68
2021/08/04 04:23:41;;;;;;;7.95;3.28;;;;;;;;;;6200153;28;20061;-67
2021/08/04 04:26:42;;;;;;;6.65;3.50;;;;;;;;;;6188062;28;20042;-68
2021/08/04 04:29:45;;;;;;;7.05;3.15;;;;;;;;;;6196268;28;20058;-67
2021/08/04 04:32:47;;;;;;;7.38;2.95;;;;;;;;;;6185137;28;20046;-67
2021/08/04 04:35:49;;;;;;;7.95;3.10;;;;;;;;;;6189662;28;20057;-67
2021/08/04 04:38:50;;;;;;;7.93;3.35;;;;;;;;;;6198439;28;20045;-67
2021/08/04 04:41:52;;;;;;;6.97;3.17;;;;;;;;;;6197577;28;20501;-67
2021/08/04 04:44:55;;;;;;;4.65;2.85;;;;;;;;;;6210305;28;20176;-67
2021/08/04 04:47:56;;;;;;;6.68;2.97;;;;;;;;;;6193124;28;20125;-68
2021/08/04 04:50:58;;;;;;;4.95;2.90;;;;;;;;;;6194550;28;20042;-71
2021/08/04 04:53:59;;;;;;;8.57;4.05;;;;;;;;;;6201810;28;20074;-67
2021/08/04 04:57:01;;;;;;;7.47;3.00;;;;;;;;;;6189353;28;20046;-67
2021/08/04 05:00:05;;;;;;;6.43;3.20;;;;;;;;;;6196390;28;20050;-67
2021/08/04 05:03:06;;;;;;;5.85;3.13;;;;;;;;;;6183889;28;20054;-67
2021/08/04 05:06:08;;;;;;;8.23;3.00;;;;;;;;;;6188880;28;20391;-66
2021/08/04 05:09:09;;;;;;;4.60;3.03;;;;;;;;;;6199440;28;20053;-66
2021/08/04 05:12:11;;;;;;;7.03;2.92;;;;;;;;;;6187614;28;20141;-67
2021/08/04 05:15:14;;;;;;;6.47;2.90;;;;;;;;;;6194527;28;20133;-67
2021/08/04 05:18:15;;;;;;;6.10;2.58;;;;;;;;;;6188783;28;20100;-68
2021/08/04 05:21:17;;;;;;;7.05;2.83;;;;;;;;;;6187174;28;20136;-68
2021/08/04 05:24:19;;;;;;;6.05;2.80;;;;;;;;;;6195743;28;20061;-67
2021/08/04 05:27:20;;;;;;;5.95;2.85;;;;;;;;;;6192151;28;20129;-67
2021/08/04 05:30:23;;;;;;;6.15;2.75;;;;;;;;;;6187842;28;20077;-69
2021/08/04 05:33:25;;;;;;;9.00;2.88;;;;;;;;;;6191105;28;20136;-67
2021/08/04 05:36:26;;;;;;;7.03;3.17;;;;;;;;;;6184834;28;20042;-67
2021/08/04 05:39:28;;;;;;;6.18;3.25;;;;;;;;;;6197579;28;20493;-66
2021/08/04 05:42:29;;;;;;;10.65;3.10;;;;;;;;;;6184343;28;20141;-68
2021/08/04 05:45:33;;;;;;;8.60;3.03;;;;;;;;;;6189498;28;20689;-71
2021/08/04 05:48:35;;;;;;;7.90;3.35;;;;;;;;;;6191555;28;20065;-67
2021/08/04 05:51:36;;;;;;;5.40;2.80;;;;;;;;;;6191528;28;20148;-68
2021/08/04 05:54:38;;;;;;;7.82;3.30;;;;;;;;;;6194784;28;20045;-69
2021/08/04 05:57:40;;;;;;;7.63;3.60;;;;;;;;;;6188995;28;20050;-68
2021/08/04 06:00:43;;;;;;;9.85;3.72;;;;;;;;;;6180915;28;20049;-69
2021/08/04 06:03:45;;;;;;;9.38;3.42;;;;;;;;;;6191248;28;20092;-71
2021/08/04 06:06:48;;;;;;;7.13;3.65;;;;;;;;;;6189705;28;20144;-68
2021/08/04 06:09:49;;;;;;;11.30;4.13;;;;;;;;;;6195422;28;20058;-69
2021/08/04 06:12:51;;;;;;;6.63;4.00;;;;;;;;;;6188324;28;20132;-69
2021/08/04 06:15:54;;;;;;;6.82;3.38;;;;;;;;;;6187323;28;20120;-69
2021/08/04 06:18:56;;;;;;;7.32;3.38;;;;;;;;;;6189923;28;20050;-70
2021/08/04 06:21:58;;;;;;;6.78;3.35;;;;;;;;;;6191145;28;20594;-68
2021/08/04 06:25:00;;;;;;;11.93;4.70;;;;;;;;;;6195583;28;20053;-67
2021/08/04 06:28:02;;;;;;;5.13;3.28;;;;;;;;;;6188687;28;20068;-72
2021/08/04 06:31:04;;;;;;;8.48;3.40;;;;;;;;;;6183730;28;21064;-70
2021/08/04 06:34:06;;;;;;;7.57;3.58;;;;;;;;;;6190963;28;20049;-69
2021/08/04 06:37:08;;;;;;;6.43;3.40;;;;;;;;;;6184942;28;20058;-69
2021/08/04 06:40:11;;;;;;;11.13;3.97;;;;;;;;;;6189130;28;20528;-69
2021/08/04 06:43:12;;;;;;;10.00;3.67;;;;;;;;;;6197503;28;20042;-70
2021/08/04 06:46:16;;;;;;;10.88;4.60;;;;;;;;;;6191572;28;20041;-69
2021/08/04 06:49:17;;;;;;;9.82;3.60;;;;;;;;;;6199756;28;20049;-70
2021/08/04 06:52:19;;;;;;;9.38;3.38;;;;;;;;;;6191398;28;20500;-69
2021/08/04 06:55:21;;;;;;;7.15;3.70;;;;;;;;;;6189647;28;20137;-70
2021/08/04 06:58:22;;;;;;;7.65;3.58;;;;;;;;;;6203247;28;20124;-69
2021/08/04 07:01:25;;;;;;;6.90;3.53;;;;;;;;;;6178458;28;20049;-69
2021/08/04 07:04:27;;;;;;;9.50;3.38;;;;;;;;;;6191662;28;20073;-69
2021/08/04 07:07:28;;;;;;;7.85;3.38;;;;;;;;;;6192929;28;20618;-69
2021/08/04 07:10:30;;;;;;;5.32;3.22;;;;;;;;;;6191947;28;20133;-70
2021/08/04 07:13:32;;;;;;;8.20;3.50;;;;;;;;;;6196284;28;20208;-69
2021/08/04 07:16:35;;;;;;;8.70;3.33;;;;;;;;;;6181087;28;20459;-70
2021/08/04 07:19:37;;;;;;;6.55;3.50;;;;;;;;;;6196813;28;20115;-69
2021/08/04 07:22:38;;;;;;;7.55;3.83;;;;;;;;;;6193132;28;20134;-69
2021/08/04 07:25:40;;;;;;;4.78;2.70;;;;;;;;;;6164774;28;20057;-69
2021/08/04 07:28:41;;;;;;;6.28;3.33;;;;;;;;;;6200168;28;20038;-69
2021/08/04 07:31:46;;;;;;;7.35;2.80;;;;;;;;;;6175341;28;20050;-69
2021/08/04 07:34:47;;;;;;;5.65;2.90;;;;;;;;;;6196230;28;20045;-69
2021/08/04 07:37:49;;;;;;;8.68;3.40;;;;;;;;;;6187458;28;20501;-69
2021/08/04 07:40:50;;;;;;;7.10;2.53;;;;;;;;;;6192009;28;20405;-69
2021/08/04 07:43:52;;;;;;;6.68;2.40;;;;;;;;;;6196754;28;20042;-69
2021/08/04 07:46:55;;;;;;;5.25;2.70;;;;;;;;;;6180068;28;20050;-69
2021/08/04 07:49:57;;;;;;;;;;;;;;;;;;6204846;28;20518;-69
2021/08/04 07:52:58;;;;;;;9.70;2.80;;;;;;;;;;6190931;28;19972;-70
2021/08/04 07:56:00;;;;;;;6.50;2.70;;;;;;;;;;6191564;28;20038;-69
2021/08/04 07:59:04;;;;;;;5.75;2.38;;;;;;;;;;6206248;28;20197;-69
2021/08/04 08:02:08;;;;;;;13.75;3.40;;;;;;;;;;6176344;28;20418;-69
2021/08/04 08:05:10;;;;;;;6.70;2.47;;;;;;;;;;6191594;28;20042;-69
2021/08/04 08:08:13;;;;;;;8.90;3.00;;;;;;;;;;6187999;28;20049;-70
2021/08/04 08:11:15;;;;;;;5.70;2.90;;;;;;;;;;6182303;28;20049;-69
2021/08/04 08:14:16;;;;;;;5.82;2.95;;;;;;;;;;6201071;28;20558;-70
2021/08/04 08:17:19;;;;;;;6.18;3.00;;;;;;;;;;6134710;28;20057;-69
2021/08/04 08:20:21;;;;;;;5.07;3.13;;;;;;;;;;6182144;28;20073;-70
2021/08/04 08:23:23;;;;;;;5.22;2.90;;;;;;;;;;6193295;28;20088;-70
2021/08/04 08:26:26;;;;;;;7.30;3.05;;;;;;;;;;6182304;28;20066;-70
2021/08/04 08:29:27;;;;;;;5.82;2.72;;;;;;;;;;6194161;28;20049;-69
2021/08/04 08:32:30;;;;;;;5.25;3.00;;;;;;;;;;6172652;28;20042;-69
2021/08/04 08:35:32;;;;;;;9.07;3.38;;;;;;;;;;6182651;28;20205;-73
2021/08/04 08:38:34;;;;;;;7.95;3.20;;;;;;;;;;6193430;28;20046;-68
2021/08/04 08:41:36;;;;;;;6.70;3.58;;;;;;;;;;6183896;28;20050;-70
2021/08/04 08:44:37;;;;;;;7.95;3.20;;;;;;;;;;6202757;28;20133;-71
2021/08/04 08:47:41;;;;;;;6.30;2.92;;;;;;;;;;6178267;28;20616;-70
2021/08/04 08:50:44;;;;;;;8.25;3.55;;;;;;;;;;6185017;28;20066;-71
2021/08/04 08:53:46;;;;;;;9.23;3.67;;;;;;;;;;6191093;28;20132;-71
2021/08/04 08:56:48;;;;;;;8.45;3.90;;;;;;;;;;6180056;28;20108;-71
2021/08/04 08:59:50;;;;;;;7.82;4.22;;;;;;;;;;6194369;28;21146;-70
2021/08/04 09:02:53;;;;;;;12.25;3.95;;;;;;;;;;6183381;28;20092;-70
2021/08/04 09:05:57;;;;;;;5.88;3.90;;;;;;;;;;6179590;28;20548;-70
2021/08/04 09:09:13;;;;;;;7.90;4.07;;;;;;;;;;6187576;28;20035;-71
2021/08/04 09:12:16;;;;;;;6.85;3.55;;;;;;;;;;6183278;28;20498;-71
2021/08/04 09:15:28;;;;;;;10.18;4.45;;;;;;;;;;6185780;28;20053;-71
2021/08/04 09:18:39;;;;;;;7.10;3.30;;;;;;;;;;6188939;28;20129;-70
2021/08/04 09:21:41;;;;;;;5.35;3.40;;;;;;;;;;6182782;28;20485;-70
2021/08/04 09:25:15;;;;;;;7.18;3.80;;;;;;;;;;6195520;28;20241;-70
2021/08/04 09:28:17;;;;;;;4.47;3.22;;;;;;;;;;6100981;29;20159;-70
2021/08/04 09:31:19;;;;;;;7.22;3.50;;;;;;;;;;6090263;29;20585;-70
2021/08/04 09:34:33;;;;;;;10.35;3.42;;;;;;;;;;6183348;28;20058;-70
2021/08/04 09:37:34;;;;;;;6.22;3.50;;;;;;;;;;6181147;28;20510;-70
2021/08/04 09:40:36;;;;;;;10.27;3.60;;;;;;;;;;6185193;28;20184;-71
2021/08/04 09:43:38;;;;;;;6.10;3.33;;;;;;;;;;6193408;28;20061;-70
2021/08/04 09:46:40;;;;;;;6.13;3.65;;;;;;;;;;6175821;28;20057;-70
2021/08/04 09:49:54;;;;;;;8.32;3.70;;;;;;;;;;6190852;28;20132;-70
2021/08/04 09:52:58;;;;;;;9.23;4.32;;;;;;;;;;6181483;28;20096;-70
2021/08/04 09:56:12;;;;;;;;;;;;;;;;;;6182858;28;20137;-71
2021/08/04 09:59:14;;;;;;;6.32;3.05;;;;;;;;;;6193863;28;19921;-70
2021/08/04 10:02:27;;;;;;;5.05;2.97;;;;;;;;;;6174234;28;20038;-71
2021/08/04 10:05:30;;;;;;;;;;;;;;;;;;6182758;28;20050;-71
2021/08/04 10:08:32;;;;;;;10.33;3.70;;;;;;;;;;6196040;28;19992;-70
2021/08/04 10:11:34;;;;;;;5.90;3.30;;;;;;;;;;6185297;28;20480;-69
2021/08/04 10:14:36;;;;;;;12.93;4.07;;;;;;;;;;6199348;28;20047;-70
2021/08/04 10:17:38;;;;;;;5.75;3.83;;;;;;;;;;6177129;28;20561;-70
2021/08/04 10:20:41;;;;;;;6.65;4.03;;;;;;;;;;6184479;28;20123;-69
2021/08/04 10:23:47;;;;;;;9.18;3.80;;;;;;;;;;6191613;28;20045;-69
2021/08/04 10:26:49;;;;;;;9.88;3.58;;;;;;;;;;6192360;28;20054;-69
2021/08/04 10:29:51;;;;;;;8.63;4.00;;;;;;;;;;6201701;28;20687;-69
2021/08/04 10:32:53;;;;;;;9.75;4.50;;;;;;;;;;6187557;28;20061;-70
2021/08/04 10:35:59;;;;;;;9.13;3.97;;;;;;;;;;6205797;28;20050;-69
2021/08/04 10:39:05;;;;;;;10.80;3.83;;;;;;;;;;6206022;28;20070;-70
2021/08/04 10:42:08;;;;;;;7.88;4.75;;;;;;;;;;6199222;28;20062;-69
2021/08/04 10:45:29;;;;;;;7.15;4.05;;;;;;;;;;6200132;28;20042;-70
2021/08/04 10:48:41;;;;;;;9.68;4.95;;;;;;;;;;6195603;28;20248;-70
2021/08/04 10:51:49;;;;;;;6.18;3.97;;;;;;;;;;6191322;28;20213;-70
2021/08/04 10:55:07;;;;;;;8.40;4.85;;;;;;;;;;6203024;28;20140;-70
2021/08/04 10:58:08;;;;;;;8.43;4.35;;;;;;;;;;6202728;28;20133;-70
2021/08/04 11:01:23;;;;;;;8.40;4.90;;;;;;;;;;6195575;28;20137;-69
2021/08/04 11:04:55;;;;;;;7.00;5.75;;;;;;;;;;6204227;28;20053;-69
2021/08/04 11:08:18;;;;;;;7.70;5.07;;;;;;;;;;6191692;28;20058;-69
2021/08/04 11:11:54;;;;;;;8.47;6.37;;;;;;;;;;6192897;28;20050;-69
2021/08/04 11:14:56;;;;;;;10.30;5.78;;;;;;;;;;6105353;29;20463;-69
2021/08/04 11:18:04;;;;;;;7.17;5.70;;;;;;;;;;6086605;29;20051;-69
2021/08/04 11:21:12;;;;;;;11.02;5.30;;;;;;;;;;6182282;28;20047;-69
2021/08/04 11:24:14;;;;;;;8.82;5.55;;;;;;;;;;6201924;28;20097;-69
2021/08/04 11:27:16;;;;;;;8.23;6.13;;;;;;;;;;6191406;28;20042;-69
2021/08/04 11:30:29;;;;;;;6.65;5.13;;;;;;;;;;6195014;28;20050;-70
2021/08/04 11:33:33;;;;;;;9.15;6.45;;;;;;;;;;6200919;28;20073;-68
2021/08/04 11:36:34;;;;;;;8.88;6.00;;;;;;;;;;6192291;28;20133;-69
2021/08/04 11:39:37;;;;;;;9.98;6.53;;;;;;;;;;6205825;28;20068;-69
2021/08/04 11:42:39;;;;;;;10.70;6.95;;;;;;;;;;6198671;28;20042;-69
2021/08/04 11:45:43;;;;;;;12.38;7.32;;;;;;;;;;6201335;28;20466;-69
2021/08/04 11:48:52;;;;;;;10.70;8.32;;;;;;;;;;6208024;28;20127;-66
2021/08/04 11:51:54;;;;;;;9.82;8.00;;;;;;;;;;6197485;28;20148;-69
2021/08/04 11:55:00;;;;;;;13.10;8.63;;;;;;;;;;6207540;28;20072;-69
2021/08/04 11:58:01;;;;;;;16.92;8.40;;;;;;;;;;6191398;28;20093;-69
2021/08/04 12:01:15;;;;;;;12.10;7.80;;;;;;;;;;6184435;28;20142;-69
2021/08/04 12:04:17;;;;;;;10.48;8.95;;;;;;;;;;6190323;28;20054;-71
2021/08/04 12:07:20;;;;;;;11.43;8.50;;;;;;;;;;6186381;28;20153;-68
2021/08/04 12:10:23;;;;;;;12.00;8.10;;;;;;;;;;6185762;28;20064;-69
2021/08/04 12:13:25;;;;;;;11.88;7.85;;;;;;;;;;6202069;28;20051;-68
2021/08/04 12:16:27;;;;;;;11.35;8.77;;;;;;;;;;6186400;28;20380;-68
2021/08/04 12:19:36;;;;;;;11.68;7.78;;;;;;;;;;6197240;28;20068;-69
2021/08/04 12:22:38;;;;;;;11.15;7.45;;;;;;;;;;6162509;28;20058;-68
2021/08/04 12:25:43;;;;;;;15.32;8.10;;;;;;;;;;6188419;28;21951;-69
2021/08/04 12:28:44;;;;;;;14.98;8.77;;;;;;;;;;6196059;28;20473;-69
2021/08/04 12:32:04;;;;;;;11.88;8.70;;;;;;;;;;6179680;28;20080;-69
2021/08/04 12:35:14;;;;;;;10.90;8.70;;;;;;;;;;6193425;28;20046;-70
2021/08/04 12:38:18;;;;;;;11.70;8.93;;;;;;;;;;6196193;28;20046;-68
2021/08/04 12:41:22;;;;;;;11.10;9.35;;;;;;;;;;6191915;28;20445;-69
2021/08/04 12:44:24;;;;;;;15.10;9.80;;;;;;;;;;6201780;28;20050;-68
2021/08/04 12:47:25;;;;;;;16.15;10.63;;;;;;;;;;6190041;28;20050;-68
2021/08/04 12:50:29;;;;;;;17.83;10.75;;;;;;;;;;6188881;28;20084;-69
2021/08/04 12:53:32;;;;;;;14.82;10.82;;;;;;;;;;6196438;28;20045;-68
2021/08/04 12:56:36;;;;;;;15.30;10.88;;;;;;;;;;6190597;28;20057;-69
2021/08/04 12:59:43;;;;;;;15.55;11.18;;;;;;;;;;6194591;28;20057;-68
2021/08/04 13:02:44;;;;;;;14.77;11.57;;;;;;;;;;6186796;28;20482;-68
2021/08/04 13:05:47;;;;;;;14.25;10.98;;;;;;;;;;6190122;28;20046;-69
2021/08/04 13:09:03;;;;;;;19.10;12.77;;;;;;;;;;6202314;28;20041;-68
2021/08/04 13:12:17;;;;;;;15.02;11.45;;;;;;;;;;6191828;28;20452;-69
2021/08/04 13:15:20;;;;;;;13.50;11.27;;;;;;;;;;6192630;28;20046;-68
2021/08/04 13:18:22;;;;;;;17.10;12.82;;;;;;;;;;6180483;28;20046;-68
2021/08/04 13:21:23;;;;;;;13.45;11.73;;;;;;;;;;6183542;28;20035;-69
2021/08/04 13:24:29;;;;;;;15.40;11.82;;;;;;;;;;6193275;28;20135;-68
2021/08/04 13:27:33;;;;;;;16.45;12.63;;;;;;;;;;6182444;28;20171;-69
2021/08/04 13:30:37;;;;;;;13.55;10.20;;;;;;;;;;6185312;28;20517;-69
2021/08/04 13:33:40;;;;;;;16.15;11.23;;;;;;;;;;6189952;28;20842;-68
2021/08/04 13:36:41;;;;;;;14.02;10.63;;;;;;;;;;6186195;28;20064;-68
2021/08/04 13:39:43;;;;;;;15.77;10.52;;;;;;;;;;6195375;28;20096;-68
2021/08/04 13:42:46;;;;;;;14.82;11.35;;;;;;;;;;6190083;28;20544;-68
2021/08/04 13:45:47;;;;;;;15.52;12.05;;;;;;;;;;6181246;28;20465;-69
2021/08/04 13:48:49;;;;;;;13.13;11.73;;;;;;;;;;6189015;28;20395;-68
2021/08/04 13:51:50;;;;;;;16.90;12.20;;;;;;;;;;6188429;28;20045;-68
2021/08/04 13:54:52;;;;;;;15.43;12.80;;;;;;;;;;6199174;28;20104;-69
2021/08/04 13:57:55;;;;;;;14.45;11.90;;;;;;;;;;6183371;28;20057;-68
2021/08/04 14:00:56;;;;;;;16.90;12.68;;;;;;;;;;6177064;28;20557;-68
2021/08/04 14:03:58;;;;;;;15.70;12.63;;;;;;;;;;6189119;28;20182;-68
2021/08/04 14:07:02;;;;;;;14.77;13.18;;;;;;;;;;6189229;28;20042;-69
2021/08/04 14:10:05;;;;;;;16.00;13.00;;;;;;;;;;6199032;28;20056;-70
2021/08/04 14:13:08;;;;;;;18.13;13.93;;;;;;;;;;6189133;28;20068;-69
2021/08/04 14:16:10;;;;;;;17.63;13.52;;;;;;;;;;6181949;28;20184;-70
2021/08/04 14:19:11;;;;;;;19.08;15.85;;;;;;;;;;6190753;28;21417;-70
2021/08/04 14:22:14;;;;;;;19.30;15.57;;;;;;;;;;6200088;28;20096;-70
2021/08/04 14:25:17;;;;;;;22.23;16.33;;;;;;;;;;6191107;28;20659;-70
2021/08/04 14:28:20;;;;;;;18.15;15.35;;;;;;;;;;6189172;28;20165;-70
2021/08/04 14:31:21;;;;;;;17.40;15.13;;;;;;;;;;6180451;28;20053;-70
2021/08/04 14:34:23;;;;;;;18.60;15.20;;;;;;;;;;6189098;28;20050;-70
2021/08/04 14:37:24;;;;;;;18.05;15.88;;;;;;;;;;6182039;28;20051;-70
2021/08/04 14:40:26;;;;;;;16.90;13.98;;;;;;;;;;6187709;28;20046;-70
2021/08/04 14:43:29;;;;;;;15.95;12.82;;;;;;;;;;6190322;28;20663;-70
2021/08/04 14:46:31;;;;;;;12.95;11.65;;;;;;;;;;6182421;28;20173;-70
2021/08/04 14:49:32;;;;;;;14.43;11.27;;;;;;;;;;6196205;28;20057;-70
2021/08/04 14:52:34;;;;;;;14.15;11.10;;;;;;;;;;6190528;28;20080;-69
2021/08/04 14:55:36;;;;;;;13.95;10.57;;;;;;;;;;6189230;28;20696;-72
2021/08/04 14:58:39;;;;;;;14.07;10.45;;;;;;;;;;6193019;28;20046;-70
2021/08/04 15:01:41;;;;;;;15.02;10.35;;;;;;;;;;6176673;28;20250;-70
2021/08/04 15:04:42;;;;;;;13.20;10.13;;;;;;;;;;6195518;28;20093;-70
2021/08/04 15:07:44;;;;;;;13.80;10.38;;;;;;;;;;6185745;28;20054;-70
2021/08/04 15:10:47;;;;;;;13.00;9.57;;;;;;;;;;6191801;28;20060;-70
2021/08/04 15:13:50;;;;;;;15.15;10.30;;;;;;;;;;6200297;28;20046;-70
2021/08/04 15:16:51;;;;;;;12.35;10.45;;;;;;;;;;6182881;28;20111;-70
2021/08/04 15:19:53;;;;;;;14.32;10.10;;;;;;;;;;6196260;28;20136;-70
2021/08/04 15:22:54;;;;;;;14.95;10.73;;;;;;;;;;6188107;28;20051;-70
2021/08/04 15:25:56;;;;;;;13.38;10.77;;;;;;;;;;6189954;28;20052;-70
2021/08/04 15:28:59;;;;;;;14.05;11.43;;;;;;;;;;6201898;28;20134;-70
2021/08/04 15:32:00;;;;;;;14.80;11.38;;;;;;;;;;6179536;28;20046;-70
2021/08/04 15:35:02;;;;;;;15.38;11.07;;;;;;;;;;6191712;28;20100;-71
2021/08/04 15:38:03;;;;;;;14.23;11.60;;;;;;;;;;6189982;28;20041;-71
2021/08/04 15:41:06;;;;;;;18.77;12.15;;;;;;;;;;6194549;28;20043;-71
2021/08/04 15:44:09;;;;;;;15.18;11.27;;;;;;;;;;6196800;28;20050;-72
2021/08/04 15:47:11;;;;;;;13.50;11.35;;;;;;;;;;6187606;28;20050;-71
2021/08/04 15:50:13;;;;;;;16.55;11.50;;;;;;;;;;6196121;28;20054;-71
2021/08/04 15:53:15;;;;;;;15.25;11.82;;;;;;;;;;6195874;28;20096;-70
2021/08/04 15:56:16;;;;;;;16.77;12.60;;;;;;;;;;6194609;28;20092;-71
2021/08/04 15:59:19;;;;;;;14.93;12.15;;;;;;;;;;6202411;28;20786;-71
2021/08/04 16:02:21;;;;;;;14.77;12.85;;;;;;;;;;6191478;28;20108;-71
2021/08/04 16:05:22;;;;;;;15.95;12.75;;;;;;;;;;6196381;28;20184;-72
2021/08/04 16:08:24;;;;;;;15.20;11.48;;;;;;;;;;6196016;28;20084;-72
2021/08/04 16:11:25;;;;;;;12.52;11.20;;;;;;;;;;6197832;28;20053;-73
2021/08/04 16:14:28;;;;;;;13.05;9.65;;;;;;;;;;6200985;28;20054;-71
2021/08/04 16:17:30;;;;;;;12.40;8.93;;;;;;;;;;6188705;28;20073;-71
2021/08/04 16:20:31;;;;;;;14.15;9.10;;;;;;;;;;6189929;28;20180;-72
2021/08/04 16:23:33;;;;;;;13.85;8.57;;;;;;;;;;6195233;28;20050;-71
2021/08/04 16:26:34;;;;;;;9.00;7.53;;;;;;;;;;6192681;28;20196;-71
2021/08/04 16:29:38;;;;;;;11.57;7.70;;;;;;;;;;6199336;28;20456;-70
2021/08/04 16:32:39;;;;;;;10.52;7.57;;;;;;;;;;6187468;28;20049;-72
2021/08/04 16:35:41;;;;;;;14.27;7.78;;;;;;;;;;6192409;28;20165;-71
2021/08/04 16:38:43;;;;;;;10.93;7.50;;;;;;;;;;6198237;28;20097;-72
2021/08/04 16:41:44;;;;;;;13.68;8.20;;;;;;;;;;6197024;28;20515;-70
2021/08/04 16:44:49;;;;;;;9.40;7.53;;;;;;;;;;6207760;28;20048;-71
2021/08/04 16:47:51;;;;;;;12.07;8.15;;;;;;;;;;6197398;28;20392;-71
2021/08/04 16:50:52;;;;;;;14.73;8.13;;;;;;;;;;6191128;28;20044;-71
2021/08/04 16:53:54;;;;;;;13.40;8.43;;;;;;;;;;6195540;28;20148;-71
2021/08/04 16:56:56;;;;;;;10.85;8.85;;;;;;;;;;6193771;28;20099;-71
2021/08/04 17:00:00;;;;;;;11.93;8.38;;;;;;;;;;6200327;28;20108;-71
2021/08/04 17:03:01;;;;;;;15.13;8.75;;;;;;;;;;6187014;28;20049;-71
2021/08/04 17:06:03;;;;;;;11.35;8.68;;;;;;;;;;6188272;28;20399;-72
2021/08/04 17:09:05;;;;;;;12.18;8.73;;;;;;;;;;6196953;28;20137;-71
2021/08/04 17:12:07;;;;;;;12.00;8.82;;;;;;;;;;6191396;28;20382;-71
2021/08/04 17:15:12;;;;;;;11.73;8.68;;;;;;;;;;6193301;28;20133;-72
2021/08/04 17:18:16;;;;;;;12.48;9.85;;;;;;;;;;6186597;28;20054;-71
2021/08/04 17:21:17;;;;;;;10.50;9.02;;;;;;;;;;6184951;28;20184;-71
2021/08/04 17:24:19;;;;;;;13.60;9.32;;;;;;;;;;6194507;28;20503;-71
2021/08/04 17:27:20;;;;;;;13.02;9.27;;;;;;;;;;6186911;28;20085;-71
2021/08/04 17:30:23;;;;;;;14.52;9.63;;;;;;;;;;6189746;28;20147;-71
2021/08/04 17:33:25;;;;;;;12.02;9.38;;;;;;;;;;6189591;28;20195;-71
2021/08/04 17:36:26;;;;;;;15.18;9.25;;;;;;;;;;6190667;28;20196;-71
2021/08/04 17:39:28;;;;;;;11.25;9.65;;;;;;;;;;6196573;28;20107;-72
2021/08/04 17:42:30;;;;;;;17.35;10.38;;;;;;;;;;6193238;28;20112;-71
2021/08/04 17:45:32;;;;;;;14.68;10.25;;;;;;;;;;6187908;28;21115;-71
2021/08/04 17:48:34;;;;;;;13.07;10.90;;;;;;;;;;6188989;28;20050;-71
2021/08/04 17:51:36;;;;;;;13.20;10.38;;;;;;;;;;6190114;28;20568;-70
2021/08/04 17:54:37;;;;;;;12.23;10.38;;;;;;;;;;6196009;28;21638;-69
2021/08/04 17:57:39;;;;;;;14.32;10.88;;;;;;;;;;6189312;28;20144;-70
2021/08/04 18:00:42;;;;;;;15.32;10.73;;;;;;;;;;6188256;28;20418;-70
2021/08/04 18:03:43;;;;;;;11.75;10.00;;;;;;;;;;6193440;28;20128;-70
2021/08/04 18:06:45;;;;;;;13.93;10.60;;;;;;;;;;6184091;28;20366;-70
2021/08/04 18:09:47;;;;;;;15.32;10.93;;;;;;;;;;6197987;28;20125;-70